Time;durP1;ratioP1;P1;durP2;ratioP2;P2;SDS_P1;SDS_P2;PMS_P1;PMS_P2;Temp;Humidity;BMP_temperature;BMP_pressure;BME280_temperature;BME280_humidity;BME280_pressure;Samples;Min_cycle;Max_cycle;Signal;HPM_P1;HPM_P2
2022/05/08 00:01:54;;;;;;;;;24.75;17.50;;;;;16.78;52.76;101772.16;5037980;28;63685;-50
2022/05/08 00:04:20;;;;;;;;;21.75;21.75;;;;;16.78;53.78;101770.38;5039967;28;66341;-52
2022/05/08 00:06:45;;;;;;;;;25.00;19.00;;;;;16.75;53.69;101772.28;5038160;28;63479;-52
2022/05/08 00:09:11;;;;;;;;;26.50;20.00;;;;;16.74;53.75;101776.69;5032601;28;61559;-51
2022/05/08 00:11:36;;;;;;;;;21.75;18.00;;;;;16.70;53.48;101772.47;5039071;28;45285;-52
2022/05/08 00:14:01;;;;;;;;;21.50;18.75;;;;;16.69;54.10;101776.84;5033069;28;68611;-51
2022/05/08 00:16:27;;;;;;;;;26.50;20.00;;;;;16.67;53.75;101768.13;5036886;28;63217;-49
2022/05/08 00:18:53;;;;;;;;;22.50;18.75;;;;;16.65;53.86;101767.31;5038977;28;45598;-52
2022/05/08 00:21:18;;;;;;;;;19.25;18.50;;;;;16.64;53.94;101767.38;5037551;28;46198;-53
2022/05/08 00:23:44;;;;;;;;;25.00;20.00;;;;;16.62;54.35;101772.72;5035376;28;64139;-50
2022/05/08 00:26:09;;;;;;;;;25.25;20.50;;;;;16.60;53.65;101763.13;5038150;28;61572;-50
2022/05/08 00:28:38;;;;;;;;;21.75;20.00;;;;;16.55;54.39;101768.56;5036717;28;45586;-52
2022/05/08 00:31:04;;;;;;;;;21.50;21.50;;;;;16.52;53.82;101766.06;5038957;28;45882;-51
2022/05/08 00:33:30;;;;;;;;;26.00;20.50;;;;;16.50;54.16;101762.56;5036383;28;46148;-50
2022/05/08 00:35:55;;;;;;;;;24.25;22.50;;;;;16.44;53.94;101766.31;5038847;28;45448;-52
2022/05/08 00:38:21;;;;;;;;;26.75;21.25;;;;;16.45;54.90;101772.44;5036246;28;45313;-51
2022/05/08 00:40:46;;;;;;;;;23.00;21.25;;;;;16.43;55.09;101772.53;5039294;28;63710;-52
2022/05/08 00:43:32;;;;;;;;;22.50;17.50;;;;;16.40;54.39;101774.41;5033689;28;69701;-48
2022/05/08 00:46:02;;;;;;;;;27.50;21.25;;;;;16.34;54.54;101778.09;5026386;28;45241;-49
2022/05/08 00:48:28;;;;;;;;;22.75;20.00;;;;;16.29;53.91;101775.63;5033001;28;45906;-51
2022/05/08 00:50:53;;;;;;;;;26.75;18.75;;;;;16.22;54.22;101774.13;5039094;28;45322;-51
2022/05/08 00:53:19;;;;;;;;;21.50;18.25;;;;;16.18;54.76;101776.91;5033334;28;48526;-52
2022/05/08 00:55:44;;;;;;;;;20.00;17.50;;;;;16.14;54.98;101773.50;5040001;28;45167;-49
2022/05/08 00:58:11;;;;;;;;;20.50;18.00;;;;;16.10;55.14;101770.09;5035348;28;45292;-51
2022/05/08 01:00:36;;;;;;;;;22.50;18.75;;;;;16.08;55.12;101779.84;5039521;28;45257;-51
2022/05/08 01:03:02;;;;;;;;;21.75;19.00;;;;;16.07;55.31;101780.75;5036538;28;46274;-51
2022/05/08 01:05:27;;;;;;;;;25.75;17.50;;;;;16.04;55.60;101772.97;5038549;28;59224;-50
2022/05/08 01:07:53;;;;;;;;;21.50;17.75;;;;;16.02;54.79;101777.41;5028427;28;45366;-51
2022/05/08 01:10:18;;;;;;;;;23.00;20.25;;;;;15.99;55.63;101771.38;5039653;28;62560;-52
2022/05/08 01:12:46;;;;;;;;;19.50;17.00;;;;;15.96;54.69;101779.41;5028358;28;68517;-50
2022/05/08 01:15:16;;;;;;;;;20.75;15.75;;;;;15.91;55.24;101767.19;5040217;28;45485;-53
2022/05/08 01:17:41;;;;;;;;;19.00;16.25;;;;;15.89;55.63;101776.94;5033900;28;45559;-56
2022/05/08 01:20:07;;;;;;;;;19.75;18.00;;;;;15.86;55.02;101774.41;5039665;28;51288;-52
2022/05/08 01:22:32;;;;;;;;;22.50;18.50;;;;;15.83;55.57;101771.00;5034315;28;46156;-52
2022/05/08 01:25:02;;;;;;;;;16.25;14.75;;;;;15.76;55.41;101767.72;5040112;28;45284;-53
2022/05/08 01:27:27;;;;;;;;;25.50;18.25;;;;;15.75;56.03;101772.13;5030665;28;45458;-51
2022/05/08 01:29:53;;;;;;;;;20.75;14.25;;;;;15.73;55.47;101755.44;5038829;28;45415;-52
2022/05/08 01:32:19;;;;;;;;;21.00;16.50;;;;;15.71;55.49;101764.31;5033335;28;45396;-53
2022/05/08 01:34:44;;;;;;;;;18.00;17.50;;;;;15.68;56.05;101767.91;5038781;28;45348;-53
2022/05/08 01:37:09;;;;;;;;;22.50;19.50;;;;;15.65;55.27;101759.22;5032598;28;61189;-53
2022/05/08 01:39:35;;;;;;;;;16.00;14.50;;;;;15.62;55.61;101764.63;5037935;28;65323;-52
2022/05/08 01:42:02;;;;;;;;;21.00;16.50;;;;;15.59;55.92;101765.56;5032405;28;63746;-50
2022/05/08 01:44:28;;;;;;;;;18.75;16.25;;;;;15.56;56.22;101766.53;5039829;28;45216;-53
2022/05/08 01:48:21;;;;;;;;;20.25;16.50;;;;;15.54;56.21;101760.44;5032704;28;61387;-52
2022/05/08 01:49:39;;;;;;;;;22.75;19.50;;;;;15.50;56.61;101766.72;5035743;28;45246;-53
2022/05/08 01:52:04;;;;;;;;;20.75;18.25;;;;;15.48;56.24;101770.34;5034370;28;45522;-54
2022/05/08 01:54:30;;;;;;;;;19.50;17.25;;;;;15.45;56.52;101771.28;5036125;28;45427;-52
2022/05/08 01:56:55;;;;;;;;;22.75;17.25;;;;;15.43;56.30;101767.81;5035355;28;61409;-53
2022/05/08 01:59:21;;;;;;;;;20.50;16.25;;;;;15.41;56.72;101768.78;5037361;28;63413;-51
2022/05/08 02:01:46;;;;;;;;;24.50;18.50;;;;;15.38;56.74;101767.09;5035104;28;63053;-52
2022/05/08 02:04:15;;;;;;;;;19.75;17.25;;;;;15.34;56.78;101763.69;5030534;28;45297;-51
2022/05/08 02:06:41;;;;;;;;;19.25;17.00;;;;;15.30;56.35;101756.78;5037394;28;45485;-52
2022/05/08 02:09:06;;;;;;;;;20.00;18.00;;;;;15.29;56.25;101770.88;5038295;28;45549;-53
2022/05/08 02:11:32;;;;;;;;;24.75;19.00;;;;;15.27;56.94;101770.06;5036421;28;68181;-51
2022/05/08 02:13:58;;;;;;;;;22.00;19.00;;;;;15.25;56.99;101766.63;5031366;28;66851;-52
2022/05/08 02:16:24;;;;;;;;;17.00;15.50;;;;;15.24;56.66;101764.88;5036755;28;45263;-52
2022/05/08 02:18:49;;;;;;;;;23.00;18.50;;;;;15.21;56.71;101759.72;5036504;28;45321;-51
2022/05/08 02:21:15;;;;;;;;;25.00;20.25;;;;;15.16;56.70;101769.53;5036375;28;59688;-50
2022/05/08 02:23:40;;;;;;;;;22.50;18.00;;;;;15.12;57.41;101770.50;5035038;28;49470;-52
2022/05/08 02:26:05;;;;;;;;;23.00;19.75;;;;;15.08;57.53;101775.00;5036462;28;62673;-51
2022/05/08 02:28:31;;;;;;;;;24.25;20.00;;;;;15.07;56.93;101769.78;5033835;28;65665;-50
2022/05/08 02:30:57;;;;;;;;;28.50;23.00;;;;;15.03;56.92;101776.91;5036963;28;46106;-50
2022/05/08 02:33:22;;;;;;;;;27.75;20.00;;;;;14.97;57.49;101771.84;5034108;28;45322;-52
2022/05/08 02:35:47;;;;;;;;;27.75;23.00;;;;;14.93;56.81;101783.38;5038182;28;45316;-52
2022/05/08 02:38:13;;;;;;;;;25.50;19.75;;;;;14.89;57.79;101781.72;5032576;28;66688;-53
2022/05/08 02:40:38;;;;;;;;;31.25;21.75;;;;;14.83;57.74;101779.28;5038315;28;64680;-53
2022/05/08 02:43:03;;;;;;;;;30.75;23.25;;;;;14.75;58.28;101782.97;5032354;28;45285;-50
2022/05/08 02:45:29;;;;;;;;;23.25;19.75;;;;;14.73;58.38;101781.28;5039231;28;45281;-52
2022/05/08 02:47:54;;;;;;;;;26.25;22.50;;;;;14.69;57.80;101780.50;5031513;28;67782;-51
2022/05/08 02:50:20;;;;;;;;;32.50;21.75;;;;;14.65;58.00;101780.66;5035560;28;46860;-50
2022/05/08 02:52:45;;;;;;;;;30.25;26.25;;;;;14.60;58.64;101786.03;5034106;28;45264;-52
2022/05/08 03:00:40;;;;;;;;;31.50;25.50;;;;;14.55;59.04;101788.75;5038995;28;45886;-52
2022/05/08 03:03:06;;;;;;;;;35.25;31.75;;;;;14.53;58.82;101785.28;5034078;28;45162;-49
2022/05/08 03:05:32;;;;;;;;;33.50;29.00;;;;;14.50;58.68;101789.78;5040095;28;45239;-52
2022/05/08 03:07:57;;;;;;;;;32.00;29.00;;;;;14.49;58.71;101798.59;5031428;28;45371;-51
2022/05/08 03:10:22;;;;;;;;;42.50;32.50;;;;;14.44;57.83;101796.06;5042162;28;48615;-52
2022/05/08 03:12:48;;;;;;;;;40.75;31.50;;;;;14.38;58.31;101796.25;5031862;28;61329;-51
2022/05/08 03:15:13;;;;;;;;;29.75;28.75;;;;;14.35;59.49;101791.03;5041395;28;62783;-52
2022/05/08 03:17:39;;;;;;;;;39.50;31.75;;;;;14.32;60.06;101791.97;5035862;28;45474;-52
2022/05/08 03:20:04;;;;;;;;;30.75;28.25;;;;;14.32;58.76;101794.59;5041413;28;61554;-51
2022/05/08 03:22:30;;;;;;;;;43.50;32.00;;;;;14.31;59.25;101802.56;5032657;28;45296;-52
2022/05/08 03:24:55;;;;;;;;;42.25;34.75;;;;;14.28;59.85;101792.13;5042245;28;45516;-51
2022/05/08 03:27:21;;;;;;;;;43.75;31.75;;;;;14.28;59.61;101792.13;5034362;28;66503;-52
2022/05/08 03:29:47;;;;;;;;;44.50;33.50;;;;;14.28;59.36;101795.59;5041853;28;47122;-49
2022/05/08 03:32:12;;;;;;;;;43.75;34.00;;;;;14.28;59.69;101795.59;5034734;28;57028;-52
2022/05/08 03:34:37;;;;;;;;;44.75;35.25;;;;;14.26;59.87;101797.41;5041265;28;62758;-52
2022/05/08 03:37:04;;;;;;;;;34.25;30.50;;;;;14.24;59.19;101788.69;5034910;28;45534;-50
2022/05/08 03:39:29;;;;;;;;;44.75;35.50;;;;;14.25;60.06;101793.03;5041672;28;46084;-51
2022/05/08 03:41:54;;;;;;;;;48.50;36.50;;;;;14.27;60.22;101786.00;5034253;28;64323;-50
2022/05/08 03:44:20;;;;;;;;;46.50;34.25;;;;;14.29;59.45;101791.19;5041094;28;60808;-50
2022/05/08 03:46:45;;;;;;;;;53.25;40.00;;;;;14.29;59.70;101785.94;5035790;28;45424;-51
2022/05/08 03:49:10;;;;;;;;;46.00;36.50;;;;;14.29;59.94;101793.81;5036535;28;68129;-53
2022/05/08 03:51:36;;;;;;;;;45.50;35.75;;;;;14.28;59.46;101786.84;5035559;28;64410;-52
2022/05/08 03:54:02;;;;;;;;;44.25;33.50;;;;;14.25;60.09;101790.41;5038207;28;58320;-52
2022/05/08 03:56:28;;;;;;;;;50.25;34.25;;;;;14.24;59.85;101788.69;5037657;28;45240;-50
2022/05/08 03:58:53;;;;;;;;;45.75;34.25;;;;;14.22;59.86;101793.13;5039303;28;46968;-51
2022/05/08 04:01:18;;;;;;;;;52.50;38.00;;;;;14.21;59.57;101799.28;5038739;28;45471;-52
2022/05/08 04:03:44;;;;;;;;;46.00;34.00;;;;;14.19;60.64;101795.84;5039893;28;64299;-53
2022/05/08 04:06:09;;;;;;;;;48.00;36.00;;;;;14.18;59.99;101796.72;5039143;28;45474;-52
2022/05/08 04:08:35;;;;;;;;;52.50;38.75;;;;;14.12;60.03;101792.50;5032403;28;45461;-52
2022/05/08 04:11:00;;;;;;;;;51.75;36.25;;;;;14.10;60.83;101796.94;5039193;28;45486;-51
2022/05/08 04:13:26;;;;;;;;;47.00;35.75;;;;;14.07;60.73;101804.03;5033550;28;45329;-52
2022/05/08 04:18:35;;;;;;;;;54.50;38.50;;;;;14.02;60.71;101798.88;5035549;28;45370;-50
2022/05/08 04:21:01;;;;;;;;;31.50;26.00;;;;;14.04;60.78;101797.06;5039434;27;45277;-53
2022/05/08 04:26:10;;;;;;;;;56.00;39.75;;;;;14.00;60.33;101796.28;5038752;28;45388;-52
2022/05/08 04:28:35;;;;;;;;;53.50;39.75;;;;;14.00;60.24;101798.91;5035537;28;68977;-53
2022/05/08 04:31:01;;;;;;;;;49.50;37.75;;;;;13.96;61.33;101810.41;5037581;28;45411;-53
2022/05/08 04:33:26;;;;;;;;;48.00;37.50;;;;;13.95;60.99;101810.44;5035622;28;62370;-50
2022/05/08 04:35:52;;;;;;;;;49.25;40.25;;;;;13.93;61.00;101809.63;5039429;28;45391;-53
2022/05/08 04:38:17;;;;;;;;;57.00;41.25;;;;;13.92;61.30;101807.91;5035210;28;50935;-50
2022/05/08 04:40:42;;;;;;;;;48.25;37.00;;;;;13.92;60.97;101811.41;5039428;28;68570;-53
2022/05/08 04:43:08;;;;;;;;;54.75;40.00;;;;;13.84;61.17;101790.50;5033850;28;64329;-50
2022/05/08 04:45:33;;;;;;;;;49.75;40.25;;;;;13.94;61.53;101809.59;5039341;28;45433;-53
2022/05/08 04:47:59;;;;;;;;;58.25;41.75;;;;;13.95;62.13;101813.09;5032333;28;67961;-53
2022/05/08 04:50:24;;;;;;;;;52.75;40.75;;;;;13.95;61.35;101813.09;5049912;28;45367;-53
2022/05/08 04:52:49;;;;;;;;;51.75;37.00;;;;;13.91;61.45;101816.69;5033034;28;56447;-52
2022/05/08 04:55:15;;;;;;;;;55.50;41.00;;;;;13.90;61.93;101814.97;5037777;28;45256;-52
2022/05/08 04:57:40;;;;;;;;;57.00;39.50;;;;;13.90;62.33;101823.75;5036784;28;46080;-53
2022/05/08 05:00:06;;;;;;;;;53.00;42.25;;;;;13.92;62.05;101827.19;5038745;28;45275;-52
2022/05/08 05:02:33;;;;;;;;;54.50;41.50;;;;;13.94;61.14;101825.38;5038089;28;45292;-51
2022/05/08 05:05:00;;;;;;;;;53.50;40.75;;;;;13.97;61.72;101832.34;5039878;28;45242;-52
2022/05/08 05:07:26;;;;;;;;;53.25;41.25;;;;;13.98;61.99;101836.72;5032524;28;46501;-51
2022/05/08 05:09:51;;;;;;;;;56.25;41.00;;;;;13.99;61.53;101834.03;5037507;28;46357;-51
2022/05/08 05:12:17;;;;;;;;;50.00;38.25;;;;;13.98;60.86;101840.19;5033258;28;63559;-51
2022/05/08 05:14:42;;;;;;;;;57.75;37.75;;;;;13.96;61.67;101842.00;5037421;28;45357;-50
2022/05/08 05:17:08;;;;;;;;;50.75;39.00;;;;;13.96;61.58;101844.63;5033916;28;59621;-52
2022/05/08 05:19:33;;;;;;;;;59.00;41.25;;;;;14.00;61.51;101842.78;5039173;28;66584;-50
2022/05/08 05:21:58;;;;;;;;;53.00;38.25;;;;;14.02;61.78;101846.25;5033065;28;60491;-53
2022/05/08 05:24:24;;;;;;;;;54.25;39.00;;;;;14.02;62.37;101851.50;5039202;28;65981;-51
2022/05/08 05:26:51;;;;;;;;;52.00;37.25;;;;;14.05;62.26;101859.34;5036904;28;64878;-50
2022/05/08 05:29:16;;;;;;;;;49.50;38.50;;;;;14.10;61.64;101859.25;5035959;28;45798;-52
2022/05/08 05:31:42;;;;;;;;;55.25;38.75;;;;;14.13;61.63;101862.69;5033621;28;62540;-51
2022/05/08 05:34:07;;;;;;;;;54.25;41.75;;;;;14.15;61.31;101857.38;5038976;28;57893;-52
2022/05/08 05:36:32;;;;;;;;;51.50;36.75;;;;;14.16;61.35;101865.22;5035084;28;48818;-52
2022/05/08 05:38:58;;;;;;;;;51.25;37.00;;;;;14.18;61.54;101875.72;5037310;28;61902;-49
2022/05/08 05:41:23;;;;;;;;;50.00;41.00;;;;;14.17;61.64;101874.84;5035849;28;62652;-52
2022/05/08 05:43:48;;;;;;;;;51.25;39.25;;;;;14.16;61.55;101874.88;5036085;28;61943;-52
2022/05/08 05:48:57;;;;;;;;;54.00;39.75;;;;;14.18;61.81;101871.34;5034650;28;45847;-52
2022/05/08 05:51:23;;;;;;;;;55.75;39.75;;;;;14.18;61.32;101876.59;5036029;28;48147;-52
2022/05/08 05:53:48;;;;;;;;;54.00;39.50;;;;;14.14;61.77;101877.53;5034823;28;66346;-52
2022/05/08 05:56:14;;;;;;;;;51.50;37.00;;;;;14.16;61.63;101878.38;5037420;28;45967;-51
2022/05/08 05:58:39;;;;;;;;;56.75;40.00;;;;;14.17;61.92;101882.75;5035644;28;66223;-51
2022/05/08 06:01:04;;;;;;;;;49.25;38.50;;;;;14.20;61.67;101881.78;5037006;28;63597;-53
2022/05/08 06:03:30;;;;;;;;;49.25;38.25;;;;;14.23;61.92;101881.72;5037664;28;65471;-52
2022/05/08 06:05:55;;;;;;;;;51.00;39.00;;;;;14.28;61.62;101889.53;5035617;28;67928;-50
2022/05/08 06:08:20;;;;;;;;;54.50;38.50;;;;;14.30;61.69;101888.59;5029694;28;66568;-53
2022/05/08 06:10:46;;;;;;;;;49.00;37.75;;;;;14.31;60.95;101886.84;5037964;28;60380;-52
2022/05/08 06:13:12;;;;;;;;;51.50;38.00;;;;;14.31;61.86;101878.94;5029523;28;68387;-52
2022/05/08 06:15:38;;;;;;;;;52.25;36.25;;;;;14.32;61.56;101888.56;5039434;28;47248;-51
2022/05/08 06:18:03;;;;;;;;;48.50;36.50;;;;;14.36;61.34;101890.19;5033272;28;45438;-51
2022/05/08 06:20:28;;;;;;;;;55.00;37.50;;;;;14.37;61.48;101891.94;5038359;28;62607;-53
2022/05/08 06:22:54;;;;;;;;;50.50;38.00;;;;;14.39;61.27;101885.72;5030685;28;45268;-53
2022/05/08 06:25:19;;;;;;;;;51.00;37.50;;;;;14.41;61.24;101891.84;5039307;28;46528;-53
2022/05/08 06:27:45;;;;;;;;;53.25;41.50;;;;;14.42;60.84;101890.06;5032221;28;58086;-52
2022/05/08 06:30:11;;;;;;;;;51.00;40.00;;;;;14.40;60.88;101894.50;5038722;28;62986;-50
2022/05/08 06:32:36;;;;;;;;;53.25;35.00;;;;;14.35;61.46;101894.59;5031253;28;45359;-50
2022/05/08 06:35:01;;;;;;;;;47.50;37.00;;;;;14.38;61.89;101904.22;5031105;28;64879;-52
2022/05/08 06:37:27;;;;;;;;;50.00;37.25;;;;;14.38;61.45;101902.44;5032516;28;45305;-50
2022/05/08 06:39:52;;;;;;;;;47.75;34.00;;;;;14.41;61.35;101896.22;5038774;28;64157;-50
2022/05/08 06:42:18;;;;;;;;;49.75;36.25;;;;;14.43;61.37;101894.44;5035078;28;67019;-52
2022/05/08 06:44:44;;;;;;;;;39.00;35.50;;;;;14.46;61.74;101896.13;5042633;28;47265;-53
2022/05/08 06:47:09;;;;;;;;;47.25;36.75;;;;;14.46;60.86;101902.25;5035854;28;45316;-51
2022/05/08 06:49:35;;;;;;;;;51.00;36.00;;;;;14.46;61.19;101901.38;5042857;28;45337;-52
2022/05/08 06:52:00;;;;;;;;;49.75;37.00;;;;;14.44;61.16;101907.53;5036694;28;45494;-51
2022/05/08 06:54:26;;;;;;;;;55.25;41.50;;;;;14.47;61.31;101903.13;5038606;28;46079;-50
2022/05/08 06:56:53;;;;;;;;;52.00;37.75;;;;;14.49;61.16;101906.59;5037486;28;45419;-53
2022/05/08 07:02:02;;;;;;;;;50.75;35.25;;;;;14.51;61.30;101913.53;5038696;28;45430;-52
2022/05/08 07:04:27;;;;;;;;;48.00;36.25;;;;;14.53;61.29;101908.22;5040717;28;46008;-52
2022/05/08 07:06:53;;;;;;;;;43.75;37.25;;;;;14.55;61.26;101922.22;5039979;28;45356;-53
2022/05/08 07:09:18;;;;;;;;;56.00;36.25;;;;;14.50;60.97;101910.94;5042068;28;45325;-53
2022/05/08 07:11:47;;;;;;;;;49.75;38.25;;;;;14.52;61.39;101915.28;5040151;28;45501;-53
2022/05/08 07:14:13;;;;;;;;;54.25;41.00;;;;;14.52;61.41;101919.66;5034168;28;46932;-53
2022/05/08 07:16:38;;;;;;;;;46.00;34.00;;;;;14.50;60.79;101916.19;5035859;28;45403;-53
2022/05/08 07:19:03;;;;;;;;;49.50;37.75;;;;;14.49;61.12;101930.28;5041076;28;45269;-53
2022/05/08 07:21:29;;;;;;;;;47.50;38.25;;;;;14.47;61.06;101927.69;5038041;28;61836;-54
2022/05/08 07:23:55;;;;;;;;;49.00;33.50;;;;;14.47;61.50;101926.84;5036188;28;67518;-52
2022/05/08 07:26:20;;;;;;;;;52.75;37.25;;;;;14.48;61.70;101926.78;5038760;28;45823;-50
2022/05/08 07:28:46;;;;;;;;;51.25;39.75;;;;;14.49;61.62;101925.88;5038635;28;45372;-52
2022/05/08 07:31:11;;;;;;;;;48.00;37.75;;;;;14.54;61.07;101931.06;5039096;28;64792;-53
2022/05/08 07:33:37;;;;;;;;;47.75;37.25;;;;;14.58;61.37;101930.09;5040503;28;45388;-52
2022/05/08 07:36:15;;;;;;;;;42.50;36.00;;;;;14.60;61.62;101938.81;5039533;28;45351;-53
2022/05/08 07:38:41;;;;;;;;;50.50;39.00;;;;;14.64;61.71;101936.97;5037700;28;45256;-53
2022/05/08 07:41:06;;;;;;;;;47.50;37.50;;;;;14.69;61.51;101940.38;5039588;28;45412;-54
2022/05/08 07:43:32;;;;;;;;;48.00;36.00;;;;;14.73;61.46;101936.75;5036333;28;64733;-54
2022/05/08 07:45:58;;;;;;;;;48.50;37.25;;;;;14.79;61.31;101941.88;5039223;28;66461;-53
2022/05/08 07:48:23;;;;;;;;;45.75;37.50;;;;;14.86;60.96;101939.97;5035927;28;45415;-52
2022/05/08 07:50:49;;;;;;;;;45.50;38.00;;;;;14.91;61.61;101949.47;5039888;28;65846;-51
2022/05/08 07:53:15;;;;;;;;;52.75;38.50;;;;;14.95;61.01;101942.34;5033242;28;47543;-51
2022/05/08 07:55:41;;;;;;;;;51.75;37.25;;;;;14.98;60.48;101948.41;5041696;28;45259;-51
2022/05/08 07:58:06;;;;;;;;;48.75;37.50;;;;;15.02;60.86;101950.97;5037017;28;59727;-53
2022/05/08 08:00:32;;;;;;;;;50.50;36.00;;;;;15.02;60.89;101943.91;5041590;28;45341;-50
2022/05/08 08:02:57;;;;;;;;;51.75;37.25;;;;;15.00;60.42;101949.22;5030837;28;45321;-54
2022/05/08 08:05:22;;;;;;;;;50.50;35.75;;;;;14.98;60.49;101958.09;5040558;28;65662;-53
2022/05/08 08:07:48;;;;;;;;;53.50;37.50;;;;;15.00;60.36;101951.00;5032081;28;45399;-52
2022/05/08 08:10:14;;;;;;;;;48.75;36.25;;;;;15.05;61.16;101958.78;5041323;28;45336;-52
2022/05/08 08:12:39;;;;;;;;;47.75;36.50;;;;;15.06;60.56;101957.88;5035074;28;45969;-52
2022/05/08 08:15:05;;;;;;;;;48.25;39.00;;;;;15.10;60.53;101952.50;5039270;28;62092;-53
2022/05/08 08:17:30;;;;;;;;;49.00;36.00;;;;;15.17;60.58;101955.81;5034881;28;45404;-51
2022/05/08 08:19:56;;;;;;;;;47.75;38.00;;;;;15.22;60.21;101963.63;5040240;28;66448;-53
2022/05/08 08:22:21;;;;;;;;;47.75;36.25;;;;;15.24;60.14;101962.66;5033428;28;66537;-53
2022/05/08 08:24:47;;;;;;;;;48.00;36.25;;;;;15.30;59.82;101959.00;5036028;28;45233;-53
2022/05/08 08:27:13;;;;;;;;;47.50;34.50;;;;;15.34;60.21;101958.00;5034513;28;45282;-54
2022/05/08 08:29:38;;;;;;;;;49.50;37.00;;;;;15.38;59.82;101959.66;5040647;28;52036;-53
2022/05/08 08:32:03;;;;;;;;;51.50;39.25;;;;;15.43;59.60;101956.91;5033431;28;68593;-52
2022/05/08 08:34:29;;;;;;;;;45.75;35.50;;;;;15.49;60.08;101954.06;5040826;28;45241;-54
2022/05/08 08:36:54;;;;;;;;;52.25;37.75;;;;;15.54;59.66;101960.09;5033730;28;61562;-53
2022/05/08 08:39:20;;;;;;;;;54.00;39.25;;;;;15.61;59.41;101964.28;5040776;28;45196;-53
2022/05/08 08:41:53;;;;;;;;;54.00;40.00;;;;;15.59;59.55;101955.56;5034393;28;46007;-54
2022/05/08 08:49:52;;;;;;;;;52.00;36.25;;;;;15.67;58.88;101961.47;5039708;28;45340;-53
2022/05/08 08:52:19;;;;;;;;;48.00;37.50;;;;;15.71;59.31;101962.25;5035293;28;46089;-53
2022/05/08 08:54:44;;;;;;;;;52.75;38.50;;;;;15.73;58.91;101958.66;5039514;28;45378;-54
2022/05/08 08:57:10;;;;;;;;;50.25;38.25;;;;;15.79;58.68;101959.41;5036640;28;45894;-54
2022/05/08 08:59:35;;;;;;;;;49.00;37.25;;;;;15.79;59.04;101962.06;5050058;28;66845;-53
2022/05/08 09:02:00;;;;;;;;;52.75;37.75;;;;;15.77;58.66;101963.88;5036801;28;46003;-52
2022/05/08 09:04:26;;;;;;;;;52.50;39.00;;;;;15.78;59.00;101955.06;5039742;28;45399;-53
2022/05/08 09:06:51;;;;;;;;;54.00;38.75;;;;;15.80;58.94;101956.75;5036533;28;61747;-50
2022/05/08 09:09:31;;;;;;;;;47.75;36.00;;;;;15.85;59.16;101959.25;5033076;28;45475;-53
2022/05/08 09:11:57;;;;;;;;;50.75;37.00;;;;;15.91;58.97;101959.91;5036658;28;46366;-53
2022/05/08 09:14:35;;;;;;;;;46.00;34.25;;;;;15.98;58.56;101957.09;5034937;28;45396;-53
2022/05/08 09:17:02;;;;;;;;;52.25;37.00;;;;;16.04;58.74;101955.16;5033702;28;45444;-53
2022/05/08 09:19:37;;;;;;;;;47.50;36.75;;;;;16.12;58.38;101958.41;5040158;28;45288;-54
2022/05/08 09:22:09;;;;;;;;;50.00;39.00;;;;;16.24;57.98;101961.59;5033412;28;46066;-53
2022/05/08 09:24:35;;;;;;;;;54.25;39.00;;;;;16.31;58.26;101956.06;5040087;28;45362;-53
2022/05/08 09:27:15;;;;;;;;;54.50;39.00;;;;;16.40;57.78;101959.34;5033744;28;45431;-53
2022/05/08 09:29:41;;;;;;;;;54.00;41.00;;;;;16.51;57.79;101955.41;5031835;28;45360;-53
2022/05/08 09:32:06;;;;;;;;;53.50;39.75;;;;;16.57;57.99;101959.63;5033458;28;45406;-53
2022/05/08 09:34:58;;;;;;;;;55.50;39.75;;;;;16.65;57.44;101962.06;5040101;28;45351;-53
2022/05/08 09:37:24;;;;;;;;;58.00;40.25;;;;;16.69;57.32;101964.53;5033571;28;45395;-54
2022/05/08 09:39:50;;;;;;;;;53.25;37.75;;;;;16.69;57.61;101966.31;5022255;28;45530;-53
2022/05/08 09:42:34;;;;;;;;;47.25;37.25;;;;;16.72;57.19;101968.88;5028738;28;46324;-52
2022/05/08 09:45:09;;;;;;;;;55.75;40.50;;;;;16.72;57.40;101968.88;5033343;28;45296;-53
2022/05/08 09:47:42;;;;;;;;;49.25;35.50;;;;;16.79;57.07;101969.53;5034559;28;45423;-49
2022/05/08 09:50:08;;;;;;;;;47.50;38.25;;;;;16.82;57.08;101966.75;5036049;28;45400;-53
2022/05/08 09:52:34;;;;;;;;;48.25;35.25;;;;;16.83;56.49;101964.09;5034148;28;45373;-54
2022/05/08 09:55:01;;;;;;;;;51.00;38.50;;;;;16.80;56.62;101964.19;5038550;28;45383;-53
2022/05/08 09:57:27;;;;;;;;;55.25;39.25;;;;;16.83;56.52;101957.94;5036265;28;45467;-53
2022/05/08 09:59:52;;;;;;;;;50.75;37.50;;;;;16.89;56.62;101955.97;5037161;28;66360;-52
2022/05/08 10:02:18;;;;;;;;;55.25;40.25;;;;;16.95;56.50;101949.63;5037108;28;46980;-53
2022/05/08 10:04:43;;;;;;;;;52.75;38.00;;;;;17.00;56.38;101944.19;5038337;28;45333;-53
2022/05/08 10:07:11;;;;;;;;;54.00;39.75;;;;;17.16;56.27;101947.16;5015583;28;60999;-51
2022/05/08 10:15:31;;;;;;;;;49.75;36.75;;;;;18.06;55.18;101942.97;5024999;28;45499;-53
2022/05/08 10:18:18;;;;;;;;;53.75;38.50;;;;;18.08;54.76;101941.09;5032509;28;45367;-53
2022/05/08 10:21:01;;;;;;;;;52.50;40.00;;;;;18.15;54.54;101939.94;5038747;28;45307;-53
2022/05/08 10:23:48;;;;;;;;;52.00;37.50;;;;;18.17;54.54;101932.78;5032556;28;46118;-53
2022/05/08 10:26:17;;;;;;;;;42.75;34.50;;;;;18.30;54.17;101942.91;5036036;28;45292;-51
2022/05/08 10:29:01;;;;;;;;;47.00;35.50;;;;;19.82;53.38;101939.03;5035633;28;45243;-54
2022/05/08 10:31:41;;;;;;;;;52.75;36.25;;;;;20.46;51.58;101935.06;5035681;28;45332;-53
2022/05/08 10:34:06;;;;;;;;;46.50;35.75;;;;;20.55;50.68;101940.88;5038215;28;46279;-54
2022/05/08 10:36:31;;;;;;;;;45.50;36.50;;;;;20.94;50.97;101927.38;5034630;28;45574;-54
2022/05/08 10:39:37;;;;;;;;;46.25;37.00;;;;;22.64;48.70;101921.63;5036341;28;63185;-53
2022/05/08 10:42:02;;;;;;;;;45.50;32.50;;;;;24.63;46.86;101920.72;5032775;28;45354;-52
2022/05/08 10:44:37;;;;;;;;;46.25;33.75;;;;;25.54;44.03;101919.78;5034883;28;45530;-54
2022/05/08 10:47:33;;;;;;;;;44.75;35.50;;;;;25.29;43.90;101922.53;5033962;28;45336;-54
2022/05/08 10:50:05;;;;;;;;;45.00;34.50;;;;;24.72;43.75;101927.28;5035878;28;45311;-53
2022/05/08 10:52:31;;;;;;;;;44.50;30.75;;;;;24.36;44.79;101920.72;5035391;28;45556;-54
2022/05/08 10:55:00;;;;;;;;;46.75;33.25;;;;;25.00;43.74;101920.88;5036982;28;46866;-55
2022/05/08 10:57:32;;;;;;;;;43.75;34.00;;;;;25.82;41.75;101922.31;5036307;28;45937;-54
2022/05/08 10:59:59;;;;;;;;;42.00;33.75;;;;;26.17;41.93;101929.59;5037728;28;45386;-50
2022/05/08 11:02:47;;;;;;;;;40.75;32.25;;;;;26.55;40.79;101917.84;5031583;28;45531;-50
2022/05/08 11:05:18;;;;;;;;;44.50;36.00;;;;;27.06;39.80;101925.56;5038607;28;45839;-52
2022/05/08 11:08:10;;;;;;;;;46.50;36.25;;;;;27.65;39.39;101928.03;5029454;28;45331;-52
2022/05/08 11:10:39;;;;;;;;;42.75;35.00;;;;;27.30;38.38;101927.31;5031483;28;45416;-53
2022/05/08 11:13:06;;;;;;;;;45.75;35.00;;;;;27.30;38.79;101921.94;5032789;28;45348;-54
2022/05/08 11:15:43;;;;;;;;;47.50;33.75;;;;;27.66;37.48;101920.84;5038893;28;45299;-53
2022/05/08 11:18:17;;;;;;;;;42.25;34.00;;;;;27.86;37.11;101921.88;5032334;28;45281;-50
2022/05/08 11:20:50;;;;;;;;;45.00;33.50;;;;;27.68;37.93;101918.03;5053977;28;45497;-52
2022/05/08 11:23:18;;;;;;;;;40.25;32.50;;;;;28.02;37.73;101930.44;5032932;28;45359;-52
2022/05/08 11:25:47;;;;;;;;;45.75;35.75;;;;;28.33;37.22;101925.22;5038472;28;45182;-53
2022/05/08 11:28:14;;;;;;;;;44.75;34.50;;;;;29.03;35.83;101919.34;5034558;28;45297;-51
2022/05/08 11:30:39;;;;;;;;;45.00;35.25;;;;;29.33;35.76;101911.28;5041628;28;45282;-52
2022/05/08 11:36:04;;;;;;;;;39.50;32.75;;;;;28.78;36.06;101910.69;5038294;28;45835;-53
2022/05/08 11:38:46;;;;;;;;;47.00;35.50;;;;;28.45;35.50;101907.16;5037369;28;45782;-50
2022/05/08 11:41:13;;;;;;;;;43.25;33.50;;;;;28.20;35.73;101895.75;5037980;28;45367;-51